sensor_id;sensor_type;location;lat;lon;timestamp;P1;durP1;ratioP1;P2;durP2;ratioP2
75704;SDS011;70013;44.726;37.760;2023-07-13T00:00:20;8.38;;;2.83;;
75704;SDS011;70013;44.726;37.760;2023-07-13T00:01:23;7.93;;;2.45;;
75704;SDS011;70013;44.726;37.760;2023-07-13T00:02:24;5.47;;;2.22;;
75704;SDS011;70013;44.726;37.760;2023-07-13T00:03:27;6.28;;;2.45;;
75704;SDS011;70013;44.726;37.760;2023-07-13T00:04:30;10.02;;;2.42;;
75704;SDS011;70013;44.726;37.760;2023-07-13T00:05:32;6.15;;;2.33;;
75704;SDS011;70013;44.726;37.760;2023-07-13T00:06:34;7.65;;;2.47;;
75704;SDS011;70013;44.726;37.760;2023-07-13T00:07:36;7.63;;;2.45;;
75704;SDS011;70013;44.726;37.760;2023-07-13T00:08:38;7.72;;;2.20;;
75704;SDS011;70013;44.726;37.760;2023-07-13T00:09:40;10.02;;;2.70;;
75704;SDS011;70013;44.726;37.760;2023-07-13T00:10:42;5.68;;;2.45;;
75704;SDS011;70013;44.726;37.760;2023-07-13T00:11:45;7.82;;;2.95;;
75704;SDS011;70013;44.726;37.760;2023-07-13T00:12:50;5.13;;;2.60;;
75704;SDS011;70013;44.726;37.760;2023-07-13T00:13:55;5.40;;;2.70;;
75704;SDS011;70013;44.726;37.760;2023-07-13T00:14:58;6.38;;;2.60;;
75704;SDS011;70013;44.726;37.760;2023-07-13T00:16:01;5.40;;;2.45;;
75704;SDS011;70013;44.726;37.760;2023-07-13T00:17:02;7.45;;;2.30;;
75704;SDS011;70013;44.726;37.760;2023-07-13T00:18:04;4.75;;;2.35;;
75704;SDS011;70013;44.726;37.760;2023-07-13T00:19:06;5.50;;;2.53;;
75704;SDS011;70013;44.726;37.760;2023-07-13T00:20:07;8.38;;;2.60;;
75704;SDS011;70013;44.726;37.760;2023-07-13T00:21:10;7.45;;;2.58;;
75704;SDS011;70013;44.726;37.760;2023-07-13T00:22:12;5.95;;;2.45;;
75704;SDS011;70013;44.726;37.760;2023-07-13T00:23:13;5.72;;;2.53;;
75704;SDS011;70013;44.726;37.760;2023-07-13T00:24:16;6.28;;;2.80;;
75704;SDS011;70013;44.726;37.760;2023-07-13T00:25:24;4.93;;;2.67;;
75704;SDS011;70013;44.726;37.760;2023-07-13T00:26:29;7.05;;;2.40;;
75704;SDS011;70013;44.726;37.760;2023-07-13T00:27:30;5.72;;;2.60;;
75704;SDS011;70013;44.726;37.760;2023-07-13T00:28:33;6.85;;;2.92;;
75704;SDS011;70013;44.726;37.760;2023-07-13T00:29:35;5.70;;;2.58;;
75704;SDS011;70013;44.726;37.760;2023-07-13T00:30:38;5.38;;;2.40;;
75704;SDS011;70013;44.726;37.760;2023-07-13T00:31:40;7.38;;;3.15;;
75704;SDS011;70013;44.726;37.760;2023-07-13T00:32:42;7.60;;;2.50;;
75704;SDS011;70013;44.726;37.760;2023-07-13T00:33:43;7.93;;;2.95;;
75704;SDS011;70013;44.726;37.760;2023-07-13T00:34:45;8.10;;;2.67;;
75704;SDS011;70013;44.726;37.760;2023-07-13T00:35:48;4.30;;;2.85;;
75704;SDS011;70013;44.726;37.760;2023-07-13T00:36:50;8.05;;;3.17;;
75704;SDS011;70013;44.726;37.760;2023-07-13T00:37:52;5.80;;;2.78;;
75704;SDS011;70013;44.726;37.760;2023-07-13T00:38:53;5.20;;;3.00;;
75704;SDS011;70013;44.726;37.760;2023-07-13T00:39:55;7.95;;;3.05;;
75704;SDS011;70013;44.726;37.760;2023-07-13T00:40:57;9.45;;;3.00;;
75704;SDS011;70013;44.726;37.760;2023-07-13T00:42:00;7.40;;;2.80;;
75704;SDS011;70013;44.726;37.760;2023-07-13T00:43:02;6.45;;;2.95;;
75704;SDS011;70013;44.726;37.760;2023-07-13T00:44:08;6.45;;;2.78;;
75704;SDS011;70013;44.726;37.760;2023-07-13T00:46:18;9.52;;;2.42;;
75704;SDS011;70013;44.726;37.760;2023-07-13T00:47:25;9.77;;;2.92;;
75704;SDS011;70013;44.726;37.760;2023-07-13T00:48:27;5.63;;;2.83;;
75704;SDS011;70013;44.726;37.760;2023-07-13T00:49:33;6.93;;;3.20;;
75704;SDS011;70013;44.726;37.760;2023-07-13T00:50:37;8.30;;;3.00;;
75704;SDS011;70013;44.726;37.760;2023-07-13T00:51:41;8.18;;;3.45;;
75704;SDS011;70013;44.726;37.760;2023-07-13T00:52:48;8.07;;;3.25;;
75704;SDS011;70013;44.726;37.760;2023-07-13T00:53:54;6.75;;;3.20;;
75704;SDS011;70013;44.726;37.760;2023-07-13T00:54:58;8.52;;;3.35;;
75704;SDS011;70013;44.726;37.760;2023-07-13T00:56:01;8.18;;;2.95;;
75704;SDS011;70013;44.726;37.760;2023-07-13T00:57:06;7.43;;;3.25;;
75704;SDS011;70013;44.726;37.760;2023-07-13T00:58:10;5.95;;;2.95;;
75704;SDS011;70013;44.726;37.760;2023-07-13T00:59:12;7.20;;;3.13;;
75704;SDS011;70013;44.726;37.760;2023-07-13T01:00:15;4.72;;;3.00;;
75704;SDS011;70013;44.726;37.760;2023-07-13T01:01:18;7.03;;;3.85;;
75704;SDS011;70013;44.726;37.760;2023-07-13T01:02:20;12.45;;;3.55;;
75704;SDS011;70013;44.726;37.760;2023-07-13T01:03:23;7.45;;;3.47;;
75704;SDS011;70013;44.726;37.760;2023-07-13T01:04:26;6.95;;;3.50;;
75704;SDS011;70013;44.726;37.760;2023-07-13T01:05:28;7.10;;;3.17;;
75704;SDS011;70013;44.726;37.760;2023-07-13T01:06:29;6.78;;;3.38;;
75704;SDS011;70013;44.726;37.760;2023-07-13T01:07:33;7.18;;;3.65;;
75704;SDS011;70013;44.726;37.760;2023-07-13T01:08:34;6.70;;;3.30;;
75704;SDS011;70013;44.726;37.760;2023-07-13T01:09:36;6.55;;;3.50;;
75704;SDS011;70013;44.726;37.760;2023-07-13T01:10:38;9.80;;;3.70;;
75704;SDS011;70013;44.726;37.760;2023-07-13T01:11:40;10.00;;;3.90;;
75704;SDS011;70013;44.726;37.760;2023-07-13T01:12:42;8.77;;;3.65;;
75704;SDS011;70013;44.726;37.760;2023-07-13T01:13:44;11.88;;;4.07;;
75704;SDS011;70013;44.726;37.760;2023-07-13T01:14:45;11.02;;;3.90;;
75704;SDS011;70013;44.726;37.760;2023-07-13T01:15:48;9.75;;;3.72;;
75704;SDS011;70013;44.726;37.760;2023-07-13T01:16:52;9.68;;;3.30;;
75704;SDS011;70013;44.726;37.760;2023-07-13T01:17:55;9.70;;;3.78;;
75704;SDS011;70013;44.726;37.760;2023-07-13T01:18:57;6.55;;;3.50;;
75704;SDS011;70013;44.726;37.760;2023-07-13T01:20:00;9.68;;;3.70;;
75704;SDS011;70013;44.726;37.760;2023-07-13T01:21:03;15.25;;;3.70;;
75704;SDS011;70013;44.726;37.760;2023-07-13T01:22:08;6.68;;;3.35;;
75704;SDS011;70013;44.726;37.760;2023-07-13T01:23:14;7.65;;;3.72;;
75704;SDS011;70013;44.726;37.760;2023-07-13T01:24:16;8.70;;;3.53;;
75704;SDS011;70013;44.726;37.760;2023-07-13T01:25:18;8.77;;;3.88;;
75704;SDS011;70013;44.726;37.760;2023-07-13T01:26:21;19.15;;;4.03;;
75704;SDS011;70013;44.726;37.760;2023-07-13T01:27:24;8.18;;;3.67;;
75704;SDS011;70013;44.726;37.760;2023-07-13T01:28:27;9.18;;;3.20;;
75704;SDS011;70013;44.726;37.760;2023-07-13T01:29:30;12.98;;;3.90;;
75704;SDS011;70013;44.726;37.760;2023-07-13T01:30:35;8.40;;;3.70;;
75704;SDS011;70013;44.726;37.760;2023-07-13T01:31:37;11.45;;;3.70;;
75704;SDS011;70013;44.726;37.760;2023-07-13T01:32:39;12.02;;;4.20;;
75704;SDS011;70013;44.726;37.760;2023-07-13T01:33:42;7.47;;;3.70;;
75704;SDS011;70013;44.726;37.760;2023-07-13T01:34:44;9.05;;;3.83;;
75704;SDS011;70013;44.726;37.760;2023-07-13T01:35:47;7.75;;;3.20;;
75704;SDS011;70013;44.726;37.760;2023-07-13T01:36:51;11.82;;;4.07;;
75704;SDS011;70013;44.726;37.760;2023-07-13T01:37:54;11.57;;;3.72;;
75704;SDS011;70013;44.726;37.760;2023-07-13T01:38:58;8.25;;;3.53;;
75704;SDS011;70013;44.726;37.760;2023-07-13T01:39:59;9.23;;;3.60;;
75704;SDS011;70013;44.726;37.760;2023-07-13T01:41:01;8.95;;;3.72;;
75704;SDS011;70013;44.726;37.760;2023-07-13T01:42:04;10.15;;;3.70;;
75704;SDS011;70013;44.726;37.760;2023-07-13T01:43:11;6.47;;;3.38;;
75704;SDS011;70013;44.726;37.760;2023-07-13T01:44:14;7.68;;;3.63;;
75704;SDS011;70013;44.726;37.760;2023-07-13T01:45:15;12.20;;;3.95;;
75704;SDS011;70013;44.726;37.760;2023-07-13T01:46:17;8.32;;;3.80;;
75704;SDS011;70013;44.726;37.760;2023-07-13T01:47:19;8.40;;;4.07;;
75704;SDS011;70013;44.726;37.760;2023-07-13T01:48:20;11.65;;;3.55;;
75704;SDS011;70013;44.726;37.760;2023-07-13T01:49:23;12.95;;;3.50;;
75704;SDS011;70013;44.726;37.760;2023-07-13T01:50:25;6.43;;;3.40;;
75704;SDS011;70013;44.726;37.760;2023-07-13T01:51:27;7.25;;;3.67;;
75704;SDS011;70013;44.726;37.760;2023-07-13T01:52:29;9.40;;;3.40;;
75704;SDS011;70013;44.726;37.760;2023-07-13T01:53:33;9.13;;;3.60;;
75704;SDS011;70013;44.726;37.760;2023-07-13T01:54:36;7.38;;;3.70;;
75704;SDS011;70013;44.726;37.760;2023-07-13T01:55:38;6.32;;;3.78;;
75704;SDS011;70013;44.726;37.760;2023-07-13T01:56:39;6.80;;;3.83;;
75704;SDS011;70013;44.726;37.760;2023-07-13T01:57:42;7.95;;;3.50;;
75704;SDS011;70013;44.726;37.760;2023-07-13T01:58:45;6.93;;;3.53;;
75704;SDS011;70013;44.726;37.760;2023-07-13T01:59:46;8.02;;;3.85;;
75704;SDS011;70013;44.726;37.760;2023-07-13T02:00:49;6.22;;;3.92;;
75704;SDS011;70013;44.726;37.760;2023-07-13T02:01:51;8.15;;;3.58;;
75704;SDS011;70013;44.726;37.760;2023-07-13T02:02:52;10.15;;;4.30;;
75704;SDS011;70013;44.726;37.760;2023-07-13T02:03:54;9.45;;;4.25;;
75704;SDS011;70013;44.726;37.760;2023-07-13T02:04:55;8.55;;;3.72;;
75704;SDS011;70013;44.726;37.760;2023-07-13T02:05:57;10.35;;;3.88;;
75704;SDS011;70013;44.726;37.760;2023-07-13T02:07:00;8.52;;;3.90;;
75704;SDS011;70013;44.726;37.760;2023-07-13T02:08:01;11.63;;;4.47;;
75704;SDS011;70013;44.726;37.760;2023-07-13T02:09:06;8.90;;;3.90;;
75704;SDS011;70013;44.726;37.760;2023-07-13T02:10:08;9.80;;;3.80;;
75704;SDS011;70013;44.726;37.760;2023-07-13T02:11:11;11.57;;;3.85;;
75704;SDS011;70013;44.726;37.760;2023-07-13T02:12:13;6.57;;;4.00;;
75704;SDS011;70013;44.726;37.760;2023-07-13T02:13:15;8.48;;;3.72;;
75704;SDS011;70013;44.726;37.760;2023-07-13T02:14:16;7.00;;;3.67;;
75704;SDS011;70013;44.726;37.760;2023-07-13T02:15:18;8.50;;;3.85;;
75704;SDS011;70013;44.726;37.760;2023-07-13T02:16:20;6.97;;;3.30;;
75704;SDS011;70013;44.726;37.760;2023-07-13T02:17:22;10.35;;;3.97;;
75704;SDS011;70013;44.726;37.760;2023-07-13T02:18:24;7.18;;;4.18;;
75704;SDS011;70013;44.726;37.760;2023-07-13T02:19:25;10.68;;;4.57;;
75704;SDS011;70013;44.726;37.760;2023-07-13T02:20:27;7.13;;;3.67;;
75704;SDS011;70013;44.726;37.760;2023-07-13T02:21:29;7.03;;;3.85;;
75704;SDS011;70013;44.726;37.760;2023-07-13T02:22:31;8.13;;;4.05;;
75704;SDS011;70013;44.726;37.760;2023-07-13T02:23:32;7.80;;;3.80;;
75704;SDS011;70013;44.726;37.760;2023-07-13T02:24:34;9.60;;;4.22;;
75704;SDS011;70013;44.726;37.760;2023-07-13T02:25:36;8.15;;;4.40;;
75704;SDS011;70013;44.726;37.760;2023-07-13T02:26:38;14.50;;;4.35;;
75704;SDS011;70013;44.726;37.760;2023-07-13T02:27:39;8.15;;;4.50;;
75704;SDS011;70013;44.726;37.760;2023-07-13T02:28:41;8.95;;;4.75;;
75704;SDS011;70013;44.726;37.760;2023-07-13T02:29:42;18.25;;;5.40;;
75704;SDS011;70013;44.726;37.760;2023-07-13T02:30:44;16.23;;;5.07;;
75704;SDS011;70013;44.726;37.760;2023-07-13T02:31:46;12.55;;;4.85;;
75704;SDS011;70013;44.726;37.760;2023-07-13T02:32:48;19.33;;;5.78;;
75704;SDS011;70013;44.726;37.760;2023-07-13T02:33:50;18.48;;;5.47;;
75704;SDS011;70013;44.726;37.760;2023-07-13T02:34:52;17.17;;;5.30;;
75704;SDS011;70013;44.726;37.760;2023-07-13T02:35:54;20.45;;;5.63;;
75704;SDS011;70013;44.726;37.760;2023-07-13T02:36:56;15.80;;;5.28;;
75704;SDS011;70013;44.726;37.760;2023-07-13T02:37:58;17.75;;;5.18;;
75704;SDS011;70013;44.726;37.760;2023-07-13T02:39:05;15.07;;;5.32;;
75704;SDS011;70013;44.726;37.760;2023-07-13T02:40:10;9.83;;;4.70;;
75704;SDS011;70013;44.726;37.760;2023-07-13T02:41:12;15.38;;;4.75;;
75704;SDS011;70013;44.726;37.760;2023-07-13T02:42:15;10.95;;;4.68;;
75704;SDS011;70013;44.726;37.760;2023-07-13T02:43:19;21.10;;;6.05;;
75704;SDS011;70013;44.726;37.760;2023-07-13T02:44:23;16.15;;;4.47;;
75704;SDS011;70013;44.726;37.760;2023-07-13T02:45:24;11.73;;;4.95;;
75704;SDS011;70013;44.726;37.760;2023-07-13T02:46:26;15.13;;;4.85;;
75704;SDS011;70013;44.726;37.760;2023-07-13T02:47:31;13.90;;;4.82;;
75704;SDS011;70013;44.726;37.760;2023-07-13T02:48:34;13.48;;;4.78;;
75704;SDS011;70013;44.726;37.760;2023-07-13T02:49:36;11.93;;;4.50;;
75704;SDS011;70013;44.726;37.760;2023-07-13T02:50:37;19.92;;;5.00;;
75704;SDS011;70013;44.726;37.760;2023-07-13T02:51:39;13.93;;;5.70;;
75704;SDS011;70013;44.726;37.760;2023-07-13T02:52:40;17.50;;;5.60;;
75704;SDS011;70013;44.726;37.760;2023-07-13T02:53:42;16.92;;;5.70;;
75704;SDS011;70013;44.726;37.760;2023-07-13T02:54:44;13.50;;;5.30;;
75704;SDS011;70013;44.726;37.760;2023-07-13T02:55:45;17.08;;;6.10;;
75704;SDS011;70013;44.726;37.760;2023-07-13T02:56:49;17.15;;;5.72;;
75704;SDS011;70013;44.726;37.760;2023-07-13T02:57:50;18.80;;;5.13;;
75704;SDS011;70013;44.726;37.760;2023-07-13T02:58:52;14.73;;;5.88;;
75704;SDS011;70013;44.726;37.760;2023-07-13T02:59:56;22.15;;;5.88;;
75704;SDS011;70013;44.726;37.760;2023-07-13T03:00:58;14.05;;;5.78;;
75704;SDS011;70013;44.726;37.760;2023-07-13T03:02:01;15.60;;;5.53;;
75704;SDS011;70013;44.726;37.760;2023-07-13T03:03:04;13.77;;;5.63;;
75704;SDS011;70013;44.726;37.760;2023-07-13T03:04:05;19.88;;;5.75;;
75704;SDS011;70013;44.726;37.760;2023-07-13T03:05:09;19.17;;;5.85;;
75704;SDS011;70013;44.726;37.760;2023-07-13T03:06:14;15.57;;;5.43;;
75704;SDS011;70013;44.726;37.760;2023-07-13T03:07:22;16.48;;;5.47;;
75704;SDS011;70013;44.726;37.760;2023-07-13T03:08:26;11.15;;;5.10;;
75704;SDS011;70013;44.726;37.760;2023-07-13T03:09:28;15.18;;;5.60;;
75704;SDS011;70013;44.726;37.760;2023-07-13T03:10:30;12.60;;;5.43;;
75704;SDS011;70013;44.726;37.760;2023-07-13T03:11:33;15.15;;;5.60;;
75704;SDS011;70013;44.726;37.760;2023-07-13T03:12:55;26.98;;;11.25;;
75704;SDS011;70013;44.726;37.760;2023-07-13T03:14:00;22.25;;;9.20;;
75704;SDS011;70013;44.726;37.760;2023-07-13T03:15:04;24.02;;;10.50;;
75704;SDS011;70013;44.726;37.760;2023-07-13T03:16:08;17.77;;;9.70;;
75704;SDS011;70013;44.726;37.760;2023-07-13T03:17:11;28.80;;;12.55;;
75704;SDS011;70013;44.726;37.760;2023-07-13T03:18:15;29.25;;;13.38;;
75704;SDS011;70013;44.726;37.760;2023-07-13T03:19:16;31.92;;;14.55;;
75704;SDS011;70013;44.726;37.760;2023-07-13T03:20:23;34.75;;;18.50;;
75704;SDS011;70013;44.726;37.760;2023-07-13T03:21:25;24.55;;;14.25;;
75704;SDS011;70013;44.726;37.760;2023-07-13T03:22:27;20.75;;;10.88;;
75704;SDS011;70013;44.726;37.760;2023-07-13T03:23:29;21.85;;;12.80;;
75704;SDS011;70013;44.726;37.760;2023-07-13T03:24:32;22.65;;;11.73;;
75704;SDS011;70013;44.726;37.760;2023-07-13T03:25:35;27.38;;;15.77;;
75704;SDS011;70013;44.726;37.760;2023-07-13T03:26:37;19.60;;;8.55;;
75704;SDS011;70013;44.726;37.760;2023-07-13T03:27:39;22.98;;;12.77;;
75704;SDS011;70013;44.726;37.760;2023-07-13T03:28:43;14.43;;;8.65;;
75704;SDS011;70013;44.726;37.760;2023-07-13T03:29:50;21.38;;;9.32;;
75704;SDS011;70013;44.726;37.760;2023-07-13T03:31:03;12.05;;;7.25;;
75704;SDS011;70013;44.726;37.760;2023-07-13T03:32:07;19.88;;;8.07;;
75704;SDS011;70013;44.726;37.760;2023-07-13T03:33:09;15.43;;;7.80;;
75704;SDS011;70013;44.726;37.760;2023-07-13T03:34:11;16.52;;;8.85;;
75704;SDS011;70013;44.726;37.760;2023-07-13T03:35:13;18.75;;;9.65;;
75704;SDS011;70013;44.726;37.760;2023-07-13T03:36:19;19.80;;;10.90;;
75704;SDS011;70013;44.726;37.760;2023-07-13T03:37:24;30.98;;;19.92;;
75704;SDS011;70013;44.726;37.760;2023-07-13T03:38:26;37.08;;;24.95;;
75704;SDS011;70013;44.726;37.760;2023-07-13T03:39:28;28.90;;;14.20;;
75704;SDS011;70013;44.726;37.760;2023-07-13T03:40:32;40.00;;;24.98;;
75704;SDS011;70013;44.726;37.760;2023-07-13T03:41:34;39.03;;;23.40;;
75704;SDS011;70013;44.726;37.760;2023-07-13T03:42:36;19.65;;;12.35;;
75704;SDS011;70013;44.726;37.760;2023-07-13T03:43:38;32.45;;;15.52;;
75704;SDS011;70013;44.726;37.760;2023-07-13T03:44:40;32.38;;;20.75;;
75704;SDS011;70013;44.726;37.760;2023-07-13T03:45:47;34.22;;;19.85;;
75704;SDS011;70013;44.726;37.760;2023-07-13T03:46:49;22.25;;;13.55;;
75704;SDS011;70013;44.726;37.760;2023-07-13T03:47:50;25.05;;;12.68;;
75704;SDS011;70013;44.726;37.760;2023-07-13T03:48:53;19.80;;;9.40;;
75704;SDS011;70013;44.726;37.760;2023-07-13T03:49:54;16.45;;;8.30;;
75704;SDS011;70013;44.726;37.760;2023-07-13T03:50:56;20.98;;;13.20;;
75704;SDS011;70013;44.726;37.760;2023-07-13T03:51:58;27.98;;;12.07;;
75704;SDS011;70013;44.726;37.760;2023-07-13T03:53:01;25.92;;;12.50;;
75704;SDS011;70013;44.726;37.760;2023-07-13T03:54:03;21.20;;;9.02;;
75704;SDS011;70013;44.726;37.760;2023-07-13T03:55:05;18.75;;;8.25;;
75704;SDS011;70013;44.726;37.760;2023-07-13T03:56:07;21.10;;;9.48;;
75704;SDS011;70013;44.726;37.760;2023-07-13T03:57:10;26.77;;;8.98;;
75704;SDS011;70013;44.726;37.760;2023-07-13T03:58:31;21.17;;;8.82;;
75704;SDS011;70013;44.726;37.760;2023-07-13T03:59:44;19.80;;;9.88;;
75704;SDS011;70013;44.726;37.760;2023-07-13T04:00:46;17.23;;;8.27;;
75704;SDS011;70013;44.726;37.760;2023-07-13T04:01:49;18.75;;;6.40;;
75704;SDS011;70013;44.726;37.760;2023-07-13T04:02:50;15.27;;;6.78;;
75704;SDS011;70013;44.726;37.760;2023-07-13T04:03:53;14.07;;;6.97;;
75704;SDS011;70013;44.726;37.760;2023-07-13T04:04:57;15.40;;;5.10;;
75704;SDS011;70013;44.726;37.760;2023-07-13T04:06:03;12.35;;;5.47;;
75704;SDS011;70013;44.726;37.760;2023-07-13T04:07:06;18.52;;;5.40;;
75704;SDS011;70013;44.726;37.760;2023-07-13T04:08:09;12.07;;;6.57;;
75704;SDS011;70013;44.726;37.760;2023-07-13T04:09:11;11.57;;;4.70;;
75704;SDS011;70013;44.726;37.760;2023-07-13T04:10:13;16.60;;;5.38;;
75704;SDS011;70013;44.726;37.760;2023-07-13T04:11:15;15.23;;;6.28;;
75704;SDS011;70013;44.726;37.760;2023-07-13T04:12:18;22.33;;;5.88;;
75704;SDS011;70013;44.726;37.760;2023-07-13T04:13:20;18.00;;;7.60;;
75704;SDS011;70013;44.726;37.760;2023-07-13T04:14:22;13.48;;;5.45;;
75704;SDS011;70013;44.726;37.760;2023-07-13T04:15:24;17.60;;;4.80;;
75704;SDS011;70013;44.726;37.760;2023-07-13T04:16:26;14.30;;;5.10;;
75704;SDS011;70013;44.726;37.760;2023-07-13T04:17:28;24.27;;;6.32;;
75704;SDS011;70013;44.726;37.760;2023-07-13T04:18:30;12.35;;;5.72;;
75704;SDS011;70013;44.726;37.760;2023-07-13T04:19:31;15.57;;;6.13;;
75704;SDS011;70013;44.726;37.760;2023-07-13T04:20:34;19.77;;;5.70;;
75704;SDS011;70013;44.726;37.760;2023-07-13T04:21:36;16.65;;;5.32;;
75704;SDS011;70013;44.726;37.760;2023-07-13T04:22:38;12.85;;;4.50;;
75704;SDS011;70013;44.726;37.760;2023-07-13T04:23:39;16.20;;;6.10;;
75704;SDS011;70013;44.726;37.760;2023-07-13T04:24:41;13.10;;;5.20;;
75704;SDS011;70013;44.726;37.760;2023-07-13T04:25:43;8.05;;;3.83;;
75704;SDS011;70013;44.726;37.760;2023-07-13T04:26:46;10.43;;;4.10;;
75704;SDS011;70013;44.726;37.760;2023-07-13T04:27:48;6.82;;;3.72;;
75704;SDS011;70013;44.726;37.760;2023-07-13T04:28:50;8.75;;;4.13;;
75704;SDS011;70013;44.726;37.760;2023-07-13T04:29:54;10.43;;;4.40;;
75704;SDS011;70013;44.726;37.760;2023-07-13T04:30:55;10.77;;;4.43;;
75704;SDS011;70013;44.726;37.760;2023-07-13T04:31:57;8.80;;;3.60;;
75704;SDS011;70013;44.726;37.760;2023-07-13T04:32:59;11.13;;;4.03;;
75704;SDS011;70013;44.726;37.760;2023-07-13T04:34:00;11.52;;;5.03;;
75704;SDS011;70013;44.726;37.760;2023-07-13T04:35:03;7.63;;;3.63;;
75704;SDS011;70013;44.726;37.760;2023-07-13T04:36:06;6.40;;;3.50;;
75704;SDS011;70013;44.726;37.760;2023-07-13T04:37:10;8.05;;;3.30;;
75704;SDS011;70013;44.726;37.760;2023-07-13T04:38:12;10.65;;;4.43;;
75704;SDS011;70013;44.726;37.760;2023-07-13T04:39:13;10.13;;;4.50;;
75704;SDS011;70013;44.726;37.760;2023-07-13T04:40:16;9.32;;;3.85;;
75704;SDS011;70013;44.726;37.760;2023-07-13T04:41:19;13.18;;;3.80;;
75704;SDS011;70013;44.726;37.760;2023-07-13T04:42:21;6.88;;;3.92;;
75704;SDS011;70013;44.726;37.760;2023-07-13T04:43:23;6.18;;;3.90;;
75704;SDS011;70013;44.726;37.760;2023-07-13T04:44:26;6.45;;;3.58;;
75704;SDS011;70013;44.726;37.760;2023-07-13T04:45:27;8.52;;;5.00;;
75704;SDS011;70013;44.726;37.760;2023-07-13T04:46:29;11.52;;;4.28;;
75704;SDS011;70013;44.726;37.760;2023-07-13T04:47:30;7.50;;;4.65;;
75704;SDS011;70013;44.726;37.760;2023-07-13T04:48:32;7.75;;;4.53;;
75704;SDS011;70013;44.726;37.760;2023-07-13T04:49:35;8.43;;;4.20;;
75704;SDS011;70013;44.726;37.760;2023-07-13T04:50:37;7.63;;;4.10;;
75704;SDS011;70013;44.726;37.760;2023-07-13T04:51:38;7.47;;;3.83;;
75704;SDS011;70013;44.726;37.760;2023-07-13T04:52:40;8.77;;;3.80;;
75704;SDS011;70013;44.726;37.760;2023-07-13T04:53:43;8.18;;;4.03;;
75704;SDS011;70013;44.726;37.760;2023-07-13T04:54:44;10.27;;;6.80;;
75704;SDS011;70013;44.726;37.760;2023-07-13T04:55:46;12.48;;;5.88;;
75704;SDS011;70013;44.726;37.760;2023-07-13T04:56:48;8.77;;;4.53;;
75704;SDS011;70013;44.726;37.760;2023-07-13T04:57:50;10.60;;;4.20;;
75704;SDS011;70013;44.726;37.760;2023-07-13T04:58:52;6.78;;;4.20;;
75704;SDS011;70013;44.726;37.760;2023-07-13T04:59:54;7.35;;;3.83;;
75704;SDS011;70013;44.726;37.760;2023-07-13T05:01:02;4.82;;;3.50;;
75704;SDS011;70013;44.726;37.760;2023-07-13T05:02:06;6.25;;;3.30;;
75704;SDS011;70013;44.726;37.760;2023-07-13T05:03:07;6.13;;;3.28;;
75704;SDS011;70013;44.726;37.760;2023-07-13T05:04:09;6.53;;;3.75;;
75704;SDS011;70013;44.726;37.760;2023-07-13T05:05:11;7.25;;;3.40;;
75704;SDS011;70013;44.726;37.760;2023-07-13T05:06:13;3.70;;;3.08;;
75704;SDS011;70013;44.726;37.760;2023-07-13T05:07:16;8.38;;;3.70;;
75704;SDS011;70013;44.726;37.760;2023-07-13T05:08:17;6.78;;;3.85;;
75704;SDS011;70013;44.726;37.760;2023-07-13T05:09:19;6.93;;;3.40;;
75704;SDS011;70013;44.726;37.760;2023-07-13T05:10:21;5.97;;;2.90;;
75704;SDS011;70013;44.726;37.760;2023-07-13T05:11:23;5.13;;;3.33;;
75704;SDS011;70013;44.726;37.760;2023-07-13T05:12:25;5.30;;;3.15;;
75704;SDS011;70013;44.726;37.760;2023-07-13T05:13:28;5.43;;;3.15;;
75704;SDS011;70013;44.726;37.760;2023-07-13T05:14:30;5.18;;;2.72;;
75704;SDS011;70013;44.726;37.760;2023-07-13T05:15:32;7.88;;;3.05;;
75704;SDS011;70013;44.726;37.760;2023-07-13T05:16:34;5.50;;;3.33;;
75704;SDS011;70013;44.726;37.760;2023-07-13T05:17:36;5.72;;;2.90;;
75704;SDS011;70013;44.726;37.760;2023-07-13T05:18:39;7.03;;;2.88;;
75704;SDS011;70013;44.726;37.760;2023-07-13T05:19:41;6.85;;;3.20;;
75704;SDS011;70013;44.726;37.760;2023-07-13T05:20:43;7.45;;;2.97;;
75704;SDS011;70013;44.726;37.760;2023-07-13T05:21:45;5.75;;;3.67;;
75704;SDS011;70013;44.726;37.760;2023-07-13T05:22:46;7.22;;;4.22;;
75704;SDS011;70013;44.726;37.760;2023-07-13T05:23:48;5.70;;;4.47;;
75704;SDS011;70013;44.726;37.760;2023-07-13T05:24:50;8.98;;;3.80;;
75704;SDS011;70013;44.726;37.760;2023-07-13T05:25:51;9.43;;;4.97;;
75704;SDS011;70013;44.726;37.760;2023-07-13T05:26:53;7.97;;;4.45;;
75704;SDS011;70013;44.726;37.760;2023-07-13T05:27:55;9.77;;;4.18;;
75704;SDS011;70013;44.726;37.760;2023-07-13T05:28:56;6.68;;;3.55;;
75704;SDS011;70013;44.726;37.760;2023-07-13T05:29:58;8.45;;;3.55;;
75704;SDS011;70013;44.726;37.760;2023-07-13T05:30:59;8.13;;;3.53;;
75704;SDS011;70013;44.726;37.760;2023-07-13T05:32:01;4.20;;;3.15;;
75704;SDS011;70013;44.726;37.760;2023-07-13T05:33:04;4.93;;;3.22;;
75704;SDS011;70013;44.726;37.760;2023-07-13T05:34:05;12.80;;;3.55;;
75704;SDS011;70013;44.726;37.760;2023-07-13T05:35:07;7.28;;;3.10;;
75704;SDS011;70013;44.726;37.760;2023-07-13T05:36:09;5.50;;;3.10;;
75704;SDS011;70013;44.726;37.760;2023-07-13T05:37:11;9.77;;;3.30;;
75704;SDS011;70013;44.726;37.760;2023-07-13T05:38:13;6.85;;;3.15;;
75704;SDS011;70013;44.726;37.760;2023-07-13T05:39:15;7.85;;;2.90;;
75704;SDS011;70013;44.726;37.760;2023-07-13T05:40:17;7.05;;;3.00;;
75704;SDS011;70013;44.726;37.760;2023-07-13T05:41:18;6.10;;;2.88;;
75704;SDS011;70013;44.726;37.760;2023-07-13T05:42:20;6.00;;;3.00;;
75704;SDS011;70013;44.726;37.760;2023-07-13T05:43:22;4.85;;;3.00;;
75704;SDS011;70013;44.726;37.760;2023-07-13T05:44:24;4.20;;;2.60;;
75704;SDS011;70013;44.726;37.760;2023-07-13T05:45:25;4.82;;;2.72;;
75704;SDS011;70013;44.726;37.760;2023-07-13T05:46:27;5.45;;;3.08;;
75704;SDS011;70013;44.726;37.760;2023-07-13T05:47:29;7.82;;;2.60;;
75704;SDS011;70013;44.726;37.760;2023-07-13T05:48:31;4.88;;;2.92;;
75704;SDS011;70013;44.726;37.760;2023-07-13T05:49:32;7.00;;;2.90;;
75704;SDS011;70013;44.726;37.760;2023-07-13T05:50:34;6.18;;;2.67;;
75704;SDS011;70013;44.726;37.760;2023-07-13T05:51:36;5.20;;;2.78;;
75704;SDS011;70013;44.726;37.760;2023-07-13T05:52:38;5.53;;;3.10;;
75704;SDS011;70013;44.726;37.760;2023-07-13T05:53:39;6.55;;;2.75;;
75704;SDS011;70013;44.726;37.760;2023-07-13T05:54:41;5.90;;;2.83;;
75704;SDS011;70013;44.726;37.760;2023-07-13T05:55:43;8.63;;;3.45;;
75704;SDS011;70013;44.726;37.760;2023-07-13T05:56:50;4.75;;;2.63;;
75704;SDS011;70013;44.726;37.760;2023-07-13T05:57:52;5.82;;;2.97;;
75704;SDS011;70013;44.726;37.760;2023-07-13T05:58:54;5.40;;;2.88;;
75704;SDS011;70013;44.726;37.760;2023-07-13T05:59:55;5.70;;;2.88;;
75704;SDS011;70013;44.726;37.760;2023-07-13T06:01:06;6.40;;;2.60;;
75704;SDS011;70013;44.726;37.760;2023-07-13T06:02:10;5.13;;;2.50;;
75704;SDS011;70013;44.726;37.760;2023-07-13T06:03:13;8.85;;;2.58;;
75704;SDS011;70013;44.726;37.760;2023-07-13T06:04:15;7.47;;;3.10;;
75704;SDS011;70013;44.726;37.760;2023-07-13T06:05:17;7.38;;;3.10;;
75704;SDS011;70013;44.726;37.760;2023-07-13T06:06:19;7.35;;;3.00;;
75704;SDS011;70013;44.726;37.760;2023-07-13T06:07:20;8.52;;;2.78;;
75704;SDS011;70013;44.726;37.760;2023-07-13T06:08:22;6.10;;;2.60;;
75704;SDS011;70013;44.726;37.760;2023-07-13T06:09:24;5.47;;;2.63;;
75704;SDS011;70013;44.726;37.760;2023-07-13T06:10:25;5.80;;;2.80;;